Time;durP1;ratioP1;P1;durP2;ratioP2;P2;SDS_P1;SDS_P2;PMS_P1;PMS_P2;Temp;Humidity;BMP_temperature;BMP_pressure;BME280_temperature;BME280_humidity;BME280_pressure;Samples;Min_cycle;Max_cycle;Signal;HPM_P1;HPM_P2
2022/12/25 00:01:32;;;;;;;34.25;14.80;;;4.70;99.90;;;;;;5094212;28;20402;-59
2022/12/25 00:03:59;;;;;;;28.45;14.10;;;4.70;99.90;;;;;;5093803;28;20410;-59
2022/12/25 00:06:26;;;;;;;33.90;15.45;;;4.70;99.90;;;;;;5093571;28;20413;-60
2022/12/25 00:08:53;;;;;;;33.67;14.38;;;4.70;99.90;;;;;;5093903;28;20421;-62
2022/12/25 00:11:21;;;;;;;35.72;15.32;;;4.70;99.90;;;;;;5094056;28;20514;-59
2022/12/25 00:13:49;;;;;;;35.42;15.27;;;4.70;99.90;;;;;;5093998;28;20454;-58
2022/12/25 00:16:19;;;;;;;39.75;15.50;;;4.70;99.90;;;;;;5094143;28;20417;-59
2022/12/25 00:18:46;;;;;;;34.00;14.80;;;4.80;99.90;;;;;;5094238;28;20755;-61
2022/12/25 00:21:14;;;;;;;37.28;16.50;;;4.80;99.90;;;;;;5092853;28;20495;-58
2022/12/25 00:23:41;;;;;;;33.70;15.20;;;4.80;99.90;;;;;;5092099;28;20754;-59
2022/12/25 00:26:10;;;;;;;40.83;15.23;;;4.80;99.90;;;;;;5093864;28;20410;-57
2022/12/25 00:28:37;;;;;;;34.75;14.07;;;4.80;99.90;;;;;;5096430;28;20406;-58
2022/12/25 00:31:06;;;;;;;38.33;14.40;;;4.80;99.90;;;;;;5096128;28;20890;-57
2022/12/25 00:33:35;;;;;;;36.40;14.35;;;4.90;99.90;;;;;;5095903;28;20417;-59
2022/12/25 00:36:02;;;;;;;29.02;14.32;;;4.90;99.90;;;;;;5095683;28;20921;-58
2022/12/25 00:38:29;;;;;;;28.48;13.57;;;4.90;99.90;;;;;;5096024;28;20414;-58
2022/12/25 00:40:55;;;;;;;28.73;13.68;;;4.90;99.90;;;;;;5095424;28;20874;-58
2022/12/25 00:43:22;;;;;;;34.25;13.65;;;4.90;99.90;;;;;;5096049;28;20420;-59
2022/12/25 00:45:57;;;;;;;27.52;13.65;;;4.90;99.90;;;;;;5096208;28;20417;-58
2022/12/25 00:48:26;;;;;;;35.92;13.90;;;4.90;99.90;;;;;;5095603;28;20896;-58
2022/12/25 00:50:56;;;;;;;29.10;13.10;;;4.90;99.90;;;;;;5096161;28;20426;-58
2022/12/25 00:53:23;;;;;;;29.95;11.93;;;4.80;99.90;;;;;;5095871;28;20413;-58
2022/12/25 00:55:53;;;;;;;26.93;11.90;;;4.80;99.90;;;;;;5095777;28;20935;-59
2022/12/25 00:58:21;;;;;;;27.02;12.18;;;4.80;99.90;;;;;;5095682;28;20405;-59
2022/12/25 01:00:48;;;;;;;30.60;12.32;;;4.80;99.90;;;;;;5096367;28;20425;-59
2022/12/25 01:03:16;;;;;;;31.77;12.00;;;4.80;99.90;;;;;;5095577;28;20413;-59
2022/12/25 01:05:44;;;;;;;22.15;11.55;;;4.80;99.90;;;;;;5095773;28;20410;-58
2022/12/25 01:08:11;;;;;;;28.45;11.70;;;4.80;99.90;;;;;;5096341;28;20420;-57
2022/12/25 01:10:37;;;;;;;29.13;12.00;;;4.70;99.90;;;;;;5095871;28;20418;-59
2022/12/25 01:13:04;;;;;;;25.35;10.82;;;4.70;99.90;;;;;;5095755;28;20410;-59
2022/12/25 01:15:30;;;;;;;26.40;10.85;;;4.70;99.90;;;;;;5095507;28;20432;-59
2022/12/25 01:17:57;;;;;;;27.77;11.93;;;4.70;99.90;;;;;;5095091;28;20916;-59
2022/12/25 01:20:24;;;;;;;27.38;11.50;;;4.70;99.90;;;;;;5095003;28;20898;-58
2022/12/25 01:22:52;;;;;;;30.15;11.40;;;4.70;99.90;;;;;;5095450;28;20421;-59
2022/12/25 01:25:19;;;;;;;26.38;11.55;;;4.70;99.90;;;;;;5094922;28;20414;-58
2022/12/25 01:27:46;;;;;;;31.40;12.32;;;4.60;99.90;;;;;;5095372;28;20417;-58
2022/12/25 01:30:13;;;;;;;24.27;12.00;;;4.60;99.90;;;;;;5095493;28;20406;-59
2022/12/25 01:32:40;;;;;;;27.80;11.40;;;4.70;99.90;;;;;;5095669;28;20421;-57
2022/12/25 01:35:07;;;;;;;31.67;12.32;;;4.60;99.90;;;;;;5095238;28;20410;-59
2022/12/25 01:37:34;;;;;;;29.30;11.70;;;4.60;99.90;;;;;;5095086;28;20425;-57
2022/12/25 01:40:02;;;;;;;26.98;11.65;;;4.70;99.90;;;;;;5094782;28;20413;-59
2022/12/25 01:42:29;;;;;;;34.05;11.45;;;4.70;99.90;;;;;;5095359;28;20417;-59
2022/12/25 01:45:33;;;;;;;33.92;12.82;;;4.70;99.90;;;;;;5095698;28;20742;-59
2022/12/25 01:48:02;;;;;;;23.73;10.20;;;4.60;99.90;;;;;;5095297;28;20554;-59
2022/12/25 01:50:29;;;;;;;27.65;11.30;;;4.70;99.90;;;;;;5095160;28;20734;-58
2022/12/25 01:52:57;;;;;;;26.83;11.00;;;4.70;99.90;;;;;;5094878;28;20416;-58
2022/12/25 01:55:26;;;;;;;25.30;10.93;;;4.70;99.90;;;;;;5094519;28;20433;-59
2022/12/25 01:57:53;;;;;;;25.70;10.77;;;4.70;99.90;;;;;;5094778;28;20413;-57
2022/12/25 02:00:20;;;;;;;33.33;11.10;;;4.70;99.90;;;;;;5095592;28;20416;-58
2022/12/25 02:02:48;;;;;;;27.83;10.63;;;4.70;99.90;;;;;;5094862;28;20493;-59
2022/12/25 02:05:21;;;;;;;22.98;9.63;;;4.70;99.90;;;;;;5094402;28;20414;-59
2022/12/25 02:07:49;;;;;;;25.13;10.70;;;4.70;99.90;;;;;;5094743;28;20510;-59
2022/12/25 02:10:16;;;;;;;26.35;10.32;;;4.70;99.90;;;;;;5094229;28;20418;-58
2022/12/25 02:12:46;;;;;;;26.80;10.15;;;4.70;99.90;;;;;;5094706;28;20414;-59
2022/12/25 02:15:16;;;;;;;29.38;10.00;;;4.60;99.90;;;;;;5094932;28;20497;-59
2022/12/25 02:17:50;;;;;;;28.20;10.25;;;4.60;99.90;;;;;;5094690;28;20789;-60
2022/12/25 02:20:55;;;;;;;21.70;10.00;;;4.60;99.90;;;;;;5094112;28;20489;-59
2022/12/25 02:24:00;;;;;;;30.98;10.80;;;4.60;99.90;;;;;;5085332;28;20418;-59
2022/12/25 02:26:46;;;;;;;21.67;9.60;;;4.60;99.90;;;;;;5094111;28;20900;-59
2022/12/25 02:29:21;;;;;;;26.45;10.70;;;4.60;99.90;;;;;;5094180;28;20774;-59
2022/12/25 02:31:54;;;;;;;24.60;9.98;;;4.70;99.90;;;;;;5094572;28;20443;-60
2022/12/25 02:34:25;;;;;;;25.55;10.07;;;4.70;99.90;;;;;;5094236;28;20547;-59
2022/12/25 02:36:59;;;;;;;26.73;10.30;;;4.80;99.90;;;;;;5094429;28;20433;-59
2022/12/25 03:06:41;;;;;;;28.23;9.90;;;5.00;99.90;;;;;;5094100;28;20492;-59
2022/12/25 03:07:36;;;;;;;17.15;8.80;;;5.20;99.90;;;;;;5093364;28;20468;-59
2022/12/25 03:12:57;;;;;;;23.35;9.73;;;5.30;99.90;;;;;;5093360;28;20931;-59
2022/12/25 03:18:13;;;;;;;22.40;8.27;;;5.40;99.90;;;;;;5092848;28;20397;-58
2022/12/25 03:28:58;;;;;;;20.17;8.25;;;5.30;99.90;;;;;;5092987;28;20394;-59
2022/12/25 03:31:28;;;;;;;23.80;9.27;;;5.30;99.90;;;;;;5092899;28;20413;-59
2022/12/25 03:37:16;;;;;;;22.75;9.40;;;5.20;99.90;;;;;;5092793;28;20421;-58
2022/12/25 04:38:12;;;;;;;21.10;9.10;;;5.40;99.90;;;;;;4967308;28;20832;-64
2022/12/25 04:40:39;;;;;;;22.90;8.70;;;5.40;99.90;;;;;;4966851;28;20432;-63
2022/12/25 04:43:07;;;;;;;18.38;8.80;;;5.30;99.90;;;;;;4967172;28;20421;-63
2022/12/25 04:45:34;;;;;;;18.55;8.32;;;5.40;99.90;;;;;;4966983;28;20421;-63
2022/12/25 04:48:01;;;;;;;24.90;9.00;;;5.40;99.90;;;;;;4966745;28;20890;-63
2022/12/25 04:50:27;;;;;;;27.55;9.55;;;5.40;99.90;;;;;;4966795;28;20440;-63
2022/12/25 04:52:54;;;;;;;17.55;8.77;;;5.40;99.90;;;;;;4966977;28;20429;-63
2022/12/25 04:55:21;;;;;;;21.73;9.63;;;5.40;99.90;;;;;;4966971;28;20797;-62
2022/12/25 04:57:47;;;;;;;20.27;9.77;;;5.40;99.90;;;;;;4966781;28;20425;-63
2022/12/25 05:00:16;;;;;;;20.80;9.43;;;5.40;99.90;;;;;;4966807;28;20422;-64
2022/12/25 05:02:43;;;;;;;25.15;9.50;;;5.50;99.90;;;;;;4967696;28;20417;-63
2022/12/25 05:05:10;;;;;;;18.85;8.85;;;5.50;99.90;;;;;;4969941;28;20488;-62
2022/12/25 05:07:37;;;;;;;20.35;9.18;;;5.60;99.90;;;;;;4971007;28;20453;-63
2022/12/25 05:10:04;;;;;;;22.15;9.25;;;5.70;99.90;;;;;;4968527;28;20444;-62
2022/12/25 05:12:31;;;;;;;19.92;8.85;;;5.80;99.90;;;;;;4967830;28;20509;-62
2022/12/25 05:14:57;;;;;;;13.97;8.40;;;5.80;99.90;;;;;;4968031;28;20482;-62
2022/12/25 05:17:26;;;;;;;20.58;8.88;;;5.90;99.90;;;;;;4967907;28;20417;-62
2022/12/25 05:19:52;;;;;;;17.92;8.20;;;6.00;99.90;;;;;;4967466;28;20468;-62
2022/12/25 05:22:19;;;;;;;18.45;9.10;;;6.00;99.90;;;;;;4953895;29;20430;-62
2022/12/25 05:24:46;;;;;;;16.00;8.23;;;6.10;99.90;;;;;;4954648;28;20425;-63
2022/12/25 05:27:14;;;;;;;19.40;8.48;;;6.10;99.90;;;;;;4955146;29;20426;-62
2022/12/25 05:29:40;;;;;;;21.02;9.30;;;6.10;99.90;;;;;;4954169;29;20948;-62
2022/12/25 05:32:07;;;;;;;15.60;7.80;;;6.20;99.90;;;;;;4954180;29;20422;-63
2022/12/25 05:34:35;;;;;;;20.23;8.15;;;6.20;99.90;;;;;;4953813;29;20422;-62
2022/12/25 05:37:02;;;;;;;18.95;8.70;;;6.30;99.90;;;;;;4954367;29;20433;-62
2022/12/25 05:39:29;;;;;;;19.70;8.13;;;6.30;99.90;;;;;;4954137;29;20422;-63
2022/12/25 05:41:55;;;;;;;16.73;8.23;;;6.30;99.90;;;;;;4954169;29;20426;-63
2022/12/25 05:44:22;;;;;;;21.77;8.43;;;6.40;99.90;;;;;;4953488;29;20441;-63
2022/12/25 05:46:49;;;;;;;19.88;8.10;;;6.40;99.90;;;;;;4953554;29;20414;-62
2022/12/25 05:49:16;;;;;;;20.80;8.35;;;6.40;99.90;;;;;;4953387;29;20438;-63
2022/12/25 05:51:44;;;;;;;15.45;8.07;;;6.40;99.90;;;;;;4953046;29;20425;-62
2022/12/25 05:54:11;;;;;;;17.15;7.70;;;6.50;99.90;;;;;;4953260;28;20914;-62
2022/12/25 05:56:38;;;;;;;16.88;7.70;;;6.50;99.90;;;;;;4953600;29;20914;-63
2022/12/25 05:59:04;;;;;;;16.85;7.60;;;6.50;99.90;;;;;;4953614;29;20948;-62
2022/12/25 06:01:31;;;;;;;19.67;7.60;;;6.50;99.90;;;;;;4953696;29;20425;-63
2022/12/25 06:03:58;;;;;;;17.45;7.80;;;6.50;99.90;;;;;;4953394;29;20430;-64
2022/12/25 06:06:25;;;;;;;13.65;7.50;;;6.60;99.90;;;;;;4953548;29;20422;-63
2022/12/25 06:08:54;;;;;;;13.45;7.70;;;6.60;99.90;;;;;;4953865;29;20432;-64
2022/12/25 06:11:21;;;;;;;18.95;8.38;;;6.60;99.90;;;;;;4953844;29;20414;-64
2022/12/25 06:13:50;;;;;;;19.15;8.20;;;6.60;99.90;;;;;;4953042;29;20425;-64
2022/12/25 06:16:17;;;;;;;20.05;9.15;;;6.60;99.90;;;;;;4952720;29;20426;-64
2022/12/25 06:18:46;;;;;;;12.63;7.40;;;6.60;99.90;;;;;;4953033;29;20418;-64
2022/12/25 06:21:15;;;;;;;15.23;7.72;;;6.60;99.90;;;;;;4952926;29;20430;-63
2022/12/25 06:23:42;;;;;;;16.27;7.80;;;6.60;99.90;;;;;;4952556;28;20433;-64
2022/12/25 06:26:13;;;;;;;16.90;7.60;;;6.70;99.90;;;;;;4952792;29;20422;-63
2022/12/25 06:28:40;;;;;;;15.68;8.05;;;6.70;99.90;;;;;;4952838;29;20455;-64
2022/12/25 06:31:08;;;;;;;16.75;8.40;;;6.70;99.90;;;;;;4952498;29;20442;-64
2022/12/25 06:33:34;;;;;;;15.25;7.22;;;6.70;99.90;;;;;;4951418;29;20422;-63
2022/12/25 06:36:05;;;;;;;12.00;7.20;;;6.70;99.90;;;;;;4952675;29;20441;-64
2022/12/25 06:38:32;;;;;;;17.10;7.90;;;6.70;99.90;;;;;;4952820;29;20425;-63
2022/12/25 06:41:03;;;;;;;18.40;7.93;;;6.70;99.90;;;;;;4953581;29;20418;-62
2022/12/25 06:43:31;;;;;;;17.02;7.53;;;6.70;99.90;;;;;;4952221;29;20445;-63
2022/12/25 06:46:02;;;;;;;15.90;7.65;;;6.70;99.90;;;;;;4952388;29;20422;-64
2022/12/25 06:48:29;;;;;;;17.30;7.60;;;6.70;99.90;;;;;;4952464;29;20453;-63
2022/12/25 06:50:56;;;;;;;18.63;7.72;;;6.70;99.90;;;;;;4952000;29;20918;-62
2022/12/25 06:53:23;;;;;;;19.45;7.00;;;6.80;99.90;;;;;;4952238;29;20425;-63
2022/12/25 06:55:49;;;;;;;14.05;7.00;;;6.80;99.90;;;;;;4952477;29;20462;-63
2022/12/25 06:58:16;;;;;;;14.02;6.70;;;6.80;99.90;;;;;;4952742;29;20790;-62
2022/12/25 07:00:44;;;;;;;14.45;6.90;;;6.80;99.90;;;;;;4952513;29;20429;-62
2022/12/25 07:03:15;;;;;;;18.55;8.25;;;6.70;99.90;;;;;;4952547;29;20433;-63
2022/12/25 07:05:43;;;;;;;19.15;8.23;;;6.80;99.90;;;;;;4952453;29;20429;-64
2022/12/25 07:08:10;;;;;;;12.82;6.95;;;6.70;99.90;;;;;;4952175;29;20437;-62
2022/12/25 07:10:37;;;;;;;14.50;7.55;;;6.80;99.90;;;;;;4952075;29;20441;-62
2022/12/25 07:13:03;;;;;;;18.27;7.40;;;6.80;99.90;;;;;;4952295;29;20432;-62
2022/12/25 07:15:30;;;;;;;15.80;7.70;;;6.70;99.90;;;;;;4952139;29;20425;-63
2022/12/25 07:17:58;;;;;;;16.63;7.55;;;6.70;99.90;;;;;;4951944;29;20433;-64
2022/12/25 07:20:25;;;;;;;15.32;7.13;;;6.70;99.90;;;;;;4951917;29;20418;-64
2022/12/25 07:22:52;;;;;;;18.05;8.00;;;6.70;99.90;;;;;;4951604;28;20533;-64
2022/12/25 07:25:19;;;;;;;15.90;7.63;;;6.60;99.90;;;;;;4952063;29;20418;-62
2022/12/25 07:27:45;;;;;;;17.37;7.93;;;6.70;99.90;;;;;;4951865;29;20417;-63
2022/12/25 07:30:13;;;;;;;15.98;7.30;;;6.60;99.90;;;;;;4951713;29;20438;-64
2022/12/25 07:32:40;;;;;;;12.77;7.30;;;6.60;99.90;;;;;;4951548;29;20915;-64
2022/12/25 07:35:08;;;;;;;19.98;8.05;;;6.60;99.90;;;;;;4951753;29;20422;-62
2022/12/25 07:37:35;;;;;;;14.15;8.10;;;6.60;99.90;;;;;;4951963;29;20428;-63
2022/12/25 07:40:02;;;;;;;19.05;8.15;;;6.60;99.90;;;;;;4951682;29;20445;-63
2022/12/25 07:42:29;;;;;;;16.13;7.95;;;6.60;99.90;;;;;;4951868;29;20418;-62
2022/12/25 07:44:55;;;;;;;13.32;7.90;;;6.70;99.90;;;;;;4952063;29;20422;-64
2022/12/25 07:47:22;;;;;;;16.02;7.82;;;6.70;99.90;;;;;;4952722;29;20544;-63
2022/12/25 07:49:49;;;;;;;15.95;7.80;;;6.70;99.90;;;;;;4951634;29;20499;-63
2022/12/25 07:52:17;;;;;;;16.73;8.00;;;6.80;99.90;;;;;;4951793;29;20422;-62
2022/12/25 07:54:44;;;;;;;17.38;8.27;;;6.80;99.90;;;;;;4951285;29;20417;-62
2022/12/25 07:57:10;;;;;;;13.50;7.80;;;6.90;99.90;;;;;;4951977;29;20421;-62
2022/12/25 07:59:37;;;;;;;16.77;7.65;;;6.90;99.90;;;;;;4952031;29;20437;-63
2022/12/25 08:02:04;;;;;;;16.47;7.20;;;6.90;99.90;;;;;;4952491;29;20417;-62
2022/12/25 08:04:31;;;;;;;13.75;7.20;;;7.00;99.90;;;;;;4951525;29;20433;-63
2022/12/25 08:06:58;;;;;;;22.25;7.75;;;7.00;99.90;;;;;;4951844;29;20425;-63
2022/12/25 08:09:26;;;;;;;16.35;7.40;;;7.00;99.90;;;;;;4951754;29;20894;-62
2022/12/25 08:11:53;;;;;;;17.27;7.90;;;7.00;99.90;;;;;;4951922;29;20448;-63
2022/12/25 08:14:19;;;;;;;15.25;7.28;;;7.00;99.90;;;;;;4952726;29;20422;-63
2022/12/25 08:16:46;;;;;;;16.02;7.43;;;7.00;99.90;;;;;;4951956;29;20426;-63
2022/12/25 08:19:14;;;;;;;12.98;7.25;;;7.00;99.90;;;;;;4952464;29;20783;-63
2022/12/25 08:21:41;;;;;;;17.10;8.70;;;7.00;99.90;;;;;;4952392;29;20446;-62
2022/12/25 08:24:08;;;;;;;18.07;9.10;;;7.00;99.90;;;;;;4951858;28;20425;-64
2022/12/25 08:26:36;;;;;;;17.35;8.45;;;7.00;99.90;;;;;;4952556;29;20428;-63
2022/12/25 08:29:03;;;;;;;15.45;7.82;;;7.10;99.90;;;;;;4952154;29;20422;-64
2022/12/25 08:31:32;;;;;;;17.23;7.80;;;7.10;99.90;;;;;;4952270;29;20445;-64
2022/12/25 08:33:59;;;;;;;16.27;8.05;;;7.20;99.90;;;;;;4952027;29;20432;-63
2022/12/25 08:36:26;;;;;;;15.02;8.82;;;7.20;99.90;;;;;;4951946;29;20434;-65
2022/12/25 08:38:53;;;;;;;24.35;13.18;;;7.30;99.90;;;;;;4951969;29;20422;-64
2022/12/25 08:41:20;;;;;;;19.85;10.25;;;7.30;99.90;;;;;;4951784;28;20426;-63
2022/12/25 08:43:49;;;;;;;18.85;8.20;;;7.40;99.90;;;;;;4951690;28;20862;-64
2022/12/25 08:46:16;;;;;;;19.30;8.50;;;7.40;99.90;;;;;;4951393;29;20838;-64
2022/12/25 08:48:43;;;;;;;19.17;8.23;;;7.50;99.90;;;;;;4951386;29;20929;-63
2022/12/25 08:51:14;;;;;;;13.48;7.38;;;7.50;99.90;;;;;;4951485;29;20465;-63
2022/12/25 08:53:41;;;;;;;15.23;7.55;;;7.60;99.90;;;;;;4951175;29;20471;-63
2022/12/25 08:56:08;;;;;;;13.95;7.25;;;7.60;99.90;;;;;;4952757;29;20422;-63
2022/12/25 08:58:35;;;;;;;14.93;7.80;;;7.70;99.90;;;;;;4954189;29;20922;-64
2022/12/25 09:01:04;;;;;;;15.53;8.30;;;7.70;99.90;;;;;;4954582;29;20520;-64
2022/12/25 09:03:31;;;;;;;13.00;7.13;;;7.80;99.90;;;;;;4954424;29;20468;-63
2022/12/25 09:06:02;;;;;;;16.53;7.70;;;7.80;99.90;;;;;;4954919;29;20429;-63
2022/12/25 09:08:29;;;;;;;15.40;7.80;;;7.90;99.90;;;;;;4954405;29;20522;-64
2022/12/25 09:10:56;;;;;;;14.90;6.97;;;7.90;99.90;;;;;;4954812;29;20941;-62
2022/12/25 09:13:23;;;;;;;12.25;6.65;;;7.90;99.90;;;;;;4953846;29;20794;-62
2022/12/25 09:15:49;;;;;;;13.10;6.63;;;8.00;99.90;;;;;;4954191;29;20468;-63
2022/12/25 09:18:18;;;;;;;14.65;7.20;;;8.00;99.90;;;;;;4954490;29;20432;-64
2022/12/25 09:20:44;;;;;;;12.63;7.00;;;8.10;99.90;;;;;;4954854;29;20422;-64
2022/12/25 09:23:11;;;;;;;11.77;6.47;;;8.10;99.90;;;;;;4954663;28;20515;-65
2022/12/25 09:25:38;;;;;;;14.98;6.60;;;8.20;99.90;;;;;;4955175;29;20440;-65
2022/12/25 09:28:05;;;;;;;12.30;6.75;;;8.20;99.90;;;;;;4954457;29;20433;-64
2022/12/25 09:30:31;;;;;;;10.75;6.35;;;8.30;99.90;;;;;;4954143;29;20434;-63
2022/12/25 09:32:58;;;;;;;13.25;6.50;;;8.40;99.90;;;;;;4954602;29;20493;-63
2022/12/25 09:35:26;;;;;;;14.40;6.97;;;8.40;99.90;;;;;;4955021;29;20422;-63
2022/12/25 09:37:53;;;;;;;12.95;6.30;;;8.50;99.90;;;;;;4954537;29;20512;-63
2022/12/25 09:40:23;;;;;;;13.77;6.82;;;8.50;99.90;;;;;;4954659;29;20423;-64
2022/12/25 09:42:52;;;;;;;14.47;6.90;;;8.60;99.90;;;;;;4954431;29;20964;-62
2022/12/25 09:45:25;;;;;;;12.90;6.30;;;8.60;99.90;;;;;;4955032;29;20425;-63
2022/12/25 09:47:56;;;;;;;15.23;7.38;;;8.60;99.90;;;;;;4955809;29;20410;-64
2022/12/25 09:50:37;;;;;;;13.70;6.28;;;8.70;99.90;;;;;;4955600;29;20536;-63
2022/12/25 09:53:09;;;;;;;15.40;7.40;;;8.70;99.90;;;;;;4955447;29;20797;-63
2022/12/25 09:55:41;;;;;;;13.80;6.90;;;8.70;99.90;;;;;;4955857;29;20444;-64
2022/12/25 09:58:12;;;;;;;13.23;6.47;;;8.80;99.90;;;;;;4954711;29;20781;-64
2022/12/25 10:00:43;;;;;;;14.25;7.50;;;8.80;99.90;;;;;;4954930;29;20430;-61
2022/12/25 10:03:16;;;;;;;12.77;7.30;;;8.80;99.90;;;;;;4954762;29;20871;-63
2022/12/25 10:06:11;;;;;;;13.35;6.68;;;8.90;99.90;;;;;;4954557;29;20956;-63
2022/12/25 10:09:00;;;;;;;17.40;6.97;;;8.90;99.90;;;;;;4954977;29;20933;-64
2022/12/25 10:11:39;;;;;;;13.20;6.87;;;8.90;99.90;;;;;;4955493;29;20513;-63
2022/12/25 10:14:17;;;;;;;16.63;7.18;;;8.90;99.90;;;;;;4954723;29;20457;-66
2022/12/25 10:16:51;;;;;;;13.35;7.15;;;9.00;99.90;;;;;;4954932;29;20433;-64
2022/12/25 10:19:30;;;;;;;14.48;6.80;;;9.00;99.90;;;;;;4954898;29;20429;-64
2022/12/25 10:22:03;;;;;;;13.18;6.93;;;9.00;99.90;;;;;;4954560;29;20421;-63
2022/12/25 10:24:33;;;;;;;13.82;7.00;;;9.00;99.90;;;;;;4980184;22;20477;-60
2022/12/25 10:27:04;;;;;;;12.95;7.07;;;9.00;99.90;;;;;;4958430;28;20418;-62
2022/12/25 10:29:33;;;;;;;14.38;7.40;;;9.00;99.90;;;;;;4959024;28;20436;-61
2022/12/25 10:31:59;;;;;;;16.73;7.78;;;9.10;99.90;;;;;;4961151;28;20445;-62
2022/12/25 10:34:27;;;;;;;17.40;8.02;;;9.10;99.90;;;;;;4960874;28;20848;-61
2022/12/25 10:36:54;;;;;;;13.57;7.65;;;9.10;99.90;;;;;;4958193;29;20469;-62
2022/12/25 10:39:25;;;;;;;13.73;7.70;;;9.10;99.90;;;;;;4960222;29;20422;-62
2022/12/25 10:42:10;;;;;;;18.02;8.50;;;9.20;99.90;;;;;;4961042;29;20418;-65
2022/12/25 10:44:37;;;;;;;15.05;7.90;;;9.20;99.90;;;;;;4961157;29;20442;-61
2022/12/25 10:47:04;;;;;;;11.73;8.38;;;9.20;99.90;;;;;;4959602;29;20425;-61
2022/12/25 10:49:35;;;;;;;16.20;8.20;;;9.30;99.90;;;;;;4961287;29;20906;-61
2022/12/25 10:52:02;;;;;;;13.63;7.97;;;9.30;99.90;;;;;;4956861;29;20509;-61
2022/12/25 10:54:33;;;;;;;15.15;9.18;;;9.30;99.90;;;;;;4958175;29;20429;-62
2022/12/25 10:57:02;;;;;;;12.60;8.00;;;9.40;99.90;;;;;;4960032;28;20425;-60
2022/12/25 10:59:31;;;;;;;17.48;9.25;;;9.40;99.90;;;;;;4958411;29;20429;-61
2022/12/25 11:02:09;;;;;;;14.23;8.60;;;9.40;99.90;;;;;;4960755;29;20418;-61
2022/12/25 11:04:36;;;;;;;14.63;8.50;;;9.40;99.90;;;;;;4961205;29;20482;-62
2022/12/25 11:07:07;;;;;;;13.82;8.23;;;9.40;99.90;;;;;;4960810;29;20418;-61
2022/12/25 11:09:35;;;;;;;14.50;8.50;;;9.40;99.90;;;;;;4960289;29;20429;-61
2022/12/25 11:12:02;;;;;;;14.55;8.52;;;9.40;99.90;;;;;;4955338;29;20441;-62
2022/12/25 11:14:29;;;;;;;16.05;8.38;;;9.40;99.90;;;;;;4952323;29;20421;-62
2022/12/25 11:17:08;;;;;;;13.43;8.00;;;9.40;99.90;;;;;;4953517;29;20471;-62
2022/12/25 11:19:35;;;;;;;13.27;7.85;;;9.40;99.90;;;;;;4952875;29;20410;-61
2022/12/25 11:22:03;;;;;;;12.43;6.93;;;9.40;99.90;;;;;;4953075;29;20890;-61
2022/12/25 11:24:33;;;;;;;10.25;6.30;;;9.40;99.90;;;;;;4953204;28;20850;-62
2022/12/25 11:27:05;;;;;;;10.98;6.07;;;9.40;99.90;;;;;;4952954;29;20468;-62
2022/12/25 11:29:41;;;;;;;10.50;6.40;;;9.50;99.90;;;;;;4952122;29;20955;-61
2022/12/25 11:32:16;;;;;;;9.85;6.63;;;9.50;99.90;;;;;;4952932;29;20434;-62
2022/12/25 11:34:46;;;;;;;8.98;6.07;;;9.50;99.90;;;;;;4954070;29;20437;-61
2022/12/25 11:37:16;;;;;;;10.02;5.90;;;9.60;99.90;;;;;;4953355;29;20428;-62
2022/12/25 11:39:43;;;;;;;11.60;6.30;;;9.70;99.90;;;;;;4953321;29;20440;-61
2022/12/25 11:42:16;;;;;;;12.43;5.70;;;9.70;99.90;;;;;;4953158;29;20424;-61
2022/12/25 11:44:47;;;;;;;10.82;6.30;;;9.80;99.90;;;;;;4953984;29;20434;-61
2022/12/25 11:47:20;;;;;;;11.75;6.07;;;9.90;99.90;;;;;;4954735;29;20432;-61
2022/12/25 11:49:53;;;;;;;11.05;6.00;;;10.00;99.90;;;;;;4959040;29;20501;-61
2022/12/25 11:52:21;;;;;;;12.47;6.00;;;10.00;99.90;;;;;;4959626;29;20438;-61
2022/12/25 11:54:55;;;;;;;11.47;5.63;;;10.00;99.90;;;;;;4958445;29;20906;-61
2022/12/25 11:57:26;;;;;;;11.27;5.87;;;10.00;99.90;;;;;;4958154;29;20428;-60
2022/12/25 11:59:58;;;;;;;9.05;6.00;;;10.00;99.90;;;;;;4959432;29;20418;-61
2022/12/25 12:02:32;;;;;;;10.97;6.17;;;10.00;99.90;;;;;;4956112;29;20425;-61
2022/12/25 12:05:08;;;;;;;9.93;6.10;;;10.00;99.90;;;;;;4952460;29;20460;-62
2022/12/25 12:07:37;;;;;;;12.10;6.82;;;10.00;99.90;;;;;;4952013;29;20488;-61
2022/12/25 12:10:13;;;;;;;11.23;6.40;;;10.00;99.90;;;;;;4953099;29;20448;-62
2022/12/25 12:12:49;;;;;;;8.85;6.55;;;10.00;99.90;;;;;;4952600;29;20442;-61
2022/12/25 12:15:27;;;;;;;9.43;6.63;;;10.00;99.90;;;;;;4951300;29;20422;-62
2022/12/25 12:17:54;;;;;;;8.95;6.50;;;10.00;99.90;;;;;;4951528;29;20430;-61
2022/12/25 12:20:29;;;;;;;12.85;7.50;;;10.00;99.90;;;;;;4951531;29;20516;-61
2022/12/25 12:22:57;;;;;;;12.13;6.70;;;9.90;99.90;;;;;;4952374;29;20445;-60
2022/12/25 12:25:24;;;;;;;13.48;7.30;;;9.90;99.90;;;;;;4951324;28;20414;-60
2022/12/25 12:27:56;;;;;;;15.65;7.40;;;9.90;99.90;;;;;;4951351;29;20497;-62
2022/12/25 12:30:26;;;;;;;10.97;7.30;;;9.90;99.90;;;;;;4951852;28;20448;-61
2022/12/25 12:32:57;;;;;;;12.40;6.45;;;9.90;99.90;;;;;;4957240;29;20441;-61
2022/12/25 12:35:27;;;;;;;11.93;6.88;;;9.80;99.90;;;;;;4959174;29;20476;-61
2022/12/25 12:37:57;;;;;;;14.27;7.97;;;9.80;99.90;;;;;;4962946;29;20433;-62
2022/12/25 12:40:33;;;;;;;15.13;7.35;;;9.80;99.90;;;;;;4960374;29;20425;-61
2022/12/25 12:43:02;;;;;;;12.57;6.90;;;9.80;99.90;;;;;;4960158;29;20422;-61
2022/12/25 12:45:32;;;;;;;8.63;6.35;;;9.70;99.90;;;;;;4960942;29;20418;-61
2022/12/25 12:47:59;;;;;;;11.75;7.10;;;9.70;99.90;;;;;;4960929;29;20898;-62
2022/12/25 12:50:35;;;;;;;10.75;6.90;;;9.70;99.90;;;;;;4962355;29;20775;-62
2022/12/25 12:53:23;;;;;;;13.43;7.30;;;9.70;99.90;;;;;;4959836;28;20523;-60
2022/12/25 12:55:51;;;;;;;14.20;7.40;;;9.70;99.90;;;;;;4962200;29;20429;-62
2022/12/25 12:58:31;;;;;;;12.03;6.80;;;9.70;99.90;;;;;;4961869;29;20433;-62
2022/12/25 13:01:07;;;;;;;8.95;6.57;;;9.70;99.90;;;;;;4961713;29;20422;-61
2022/12/25 13:03:50;;;;;;;13.63;8.68;;;9.70;99.90;;;;;;4962474;29;20422;-62
2022/12/25 13:06:21;;;;;;;11.02;7.60;;;9.70;99.90;;;;;;4963258;29;20775;-61
2022/12/25 13:09:00;;;;;;;9.95;7.20;;;9.70;99.90;;;;;;4963518;29;20422;-61
2022/12/25 13:11:29;;;;;;;12.43;6.85;;;9.70;99.90;;;;;;4964803;29;20951;-62
2022/12/25 13:14:01;;;;;;;10.95;6.68;;;9.70;99.90;;;;;;4962468;29;20426;-62
2022/12/25 13:16:30;;;;;;;11.07;6.85;;;9.70;99.90;;;;;;4962063;29;20413;-61
2022/12/25 13:18:58;;;;;;;11.30;6.60;;;9.70;99.90;;;;;;4960435;29;20506;-61
2022/12/25 13:21:26;;;;;;;10.65;7.07;;;9.60;99.90;;;;;;4959847;29;20429;-63
2022/12/25 13:23:58;;;;;;;11.55;7.28;;;9.60;99.90;;;;;;4959189;28;20429;-63
2022/12/25 13:26:25;;;;;;;12.35;7.00;;;9.60;99.90;;;;;;4957601;29;20422;-63
2022/12/25 13:28:54;;;;;;;11.20;7.10;;;9.60;99.90;;;;;;4955816;29;20430;-62
2022/12/25 13:31:24;;;;;;;11.20;6.82;;;9.50;99.90;;;;;;4955589;28;20422;-62
2022/12/25 13:33:56;;;;;;;10.40;6.80;;;9.50;99.90;;;;;;4959110;29;20409;-61
2022/12/25 13:36:23;;;;;;;13.07;7.47;;;9.50;99.90;;;;;;4958625;29;20426;-61
2022/12/25 13:38:53;;;;;;;13.73;7.17;;;9.50;99.90;;;;;;4958333;29;20422;-61
2022/12/25 13:44:14;;;;;;;11.70;6.72;;;9.40;99.90;;;;;;4962899;29;20766;-60
2022/12/25 13:46:43;;;;;;;10.43;6.78;;;9.40;99.90;;;;;;4964413;29;20434;-61
2022/12/25 13:49:15;;;;;;;11.52;6.90;;;9.40;99.90;;;;;;4958384;29;20425;-61
2022/12/25 13:51:41;;;;;;;12.18;7.18;;;9.30;99.90;;;;;;4961191;29;20442;-61
2022/12/25 13:54:11;;;;;;;11.88;7.07;;;9.30;99.90;;;;;;4962314;29;20418;-61
2022/12/25 13:56:43;;;;;;;12.65;6.82;;;9.30;99.90;;;;;;4962250;29;20549;-61
2022/12/25 13:59:15;;;;;;;15.25;7.60;;;9.30;99.90;;;;;;4962218;29;20914;-61
2022/12/25 14:01:43;;;;;;;14.93;7.65;;;9.30;99.90;;;;;;4961923;29;20426;-61
2022/12/25 14:04:15;;;;;;;13.10;7.63;;;9.30;99.90;;;;;;4961420;29;20430;-61
2022/12/25 14:06:42;;;;;;;15.43;8.13;;;9.30;99.90;;;;;;4960820;29;20426;-62
2022/12/25 14:09:11;;;;;;;10.98;7.68;;;9.30;99.90;;;;;;4963430;29;20432;-62
2022/12/25 14:11:40;;;;;;;12.20;7.70;;;9.30;99.90;;;;;;4963244;29;20469;-62
2022/12/25 14:14:14;;;;;;;9.25;6.70;;;9.30;99.90;;;;;;4963308;29;20426;-62
2022/12/25 14:16:44;;;;;;;9.70;7.20;;;9.20;99.90;;;;;;4955640;29;20438;-61
2022/12/25 14:19:25;;;;;;;10.65;7.55;;;9.20;99.90;;;;;;4955432;29;20755;-62
2022/12/25 14:21:55;;;;;;;9.88;6.25;;;9.20;99.90;;;;;;4954593;29;20796;-62
2022/12/25 14:24:24;;;;;;;11.88;6.70;;;9.20;99.90;;;;;;4954964;28;20433;-61
2022/12/25 14:26:58;;;;;;;8.93;6.03;;;9.20;99.90;;;;;;4956275;29;20418;-61
2022/12/25 14:29:32;;;;;;;11.23;7.70;;;9.20;99.90;;;;;;4955144;29;20776;-61
2022/12/25 14:32:04;;;;;;;11.88;7.10;;;9.20;99.90;;;;;;4955764;29;20471;-61
2022/12/25 14:34:32;;;;;;;13.35;7.50;;;9.10;99.90;;;;;;4954377;29;20436;-62
2022/12/25 14:37:00;;;;;;;13.23;7.22;;;9.10;99.90;;;;;;4954795;29;20421;-62
2022/12/25 14:39:32;;;;;;;12.55;7.35;;;9.10;99.90;;;;;;4954869;29;20913;-62
2022/12/25 14:41:59;;;;;;;11.85;7.35;;;9.10;99.90;;;;;;4955193;29;20419;-62